createdAt,value
2022-11-22T00:00:50.442Z,99160.69
2022-11-22T00:03:18.300Z,99164.56
2022-11-22T00:05:46.039Z,99161.84
2022-11-22T00:08:13.848Z,99152.94
2022-11-22T00:10:42.954Z,99151.78
2022-11-22T00:13:10.816Z,99155.28
2022-11-22T00:15:38.551Z,99157.88
2022-11-22T00:18:06.400Z,99159.69
2022-11-22T00:20:34.763Z,99150.72
2022-11-22T00:23:02.504Z,99156.88
2022-11-22T00:25:30.282Z,99168.16
2022-11-22T00:27:59.425Z,99177.38
2022-11-22T00:30:27.141Z,99175.97
2022-11-22T00:32:54.888Z,99168.00
2022-11-22T00:35:22.638Z,99174.09
2022-11-22T00:37:50.446Z,99169.38
2022-11-22T00:40:18.323Z,99169.03
2022-11-22T00:42:46.071Z,99165.94
2022-11-22T00:45:15.325Z,99163.53
2022-11-22T00:47:43.039Z,99165.13
2022-11-22T00:50:11.263Z,99170.22
2022-11-22T00:52:38.999Z,99161.78
2022-11-22T00:55:07.631Z,99160.00
2022-11-22T00:57:35.369Z,99165.75
2022-11-22T01:00:03.112Z,99151.56
2022-11-22T01:02:32.279Z,99149.75
2022-11-22T01:05:00.076Z,99148.03
2022-11-22T01:07:27.920Z,99141.56
2022-11-22T01:09:55.695Z,99148.81
2022-11-22T01:12:23.487Z,99135.91
2022-11-22T01:14:51.484Z,99144.38
2022-11-22T01:17:19.344Z,99132.19
2022-11-22T01:19:48.395Z,99138.38
2022-11-22T01:22:16.290Z,99134.22
2022-11-22T01:24:43.983Z,99136.66
2022-11-22T01:27:11.763Z,99145.56
2022-11-22T01:29:39.523Z,99147.28
2022-11-22T01:32:07.749Z,99143.38
2022-11-22T01:34:35.465Z,99148.47
2022-11-22T01:37:05.345Z,99143.50
2022-11-22T01:39:33.374Z,99154.13
2022-11-22T01:42:01.132Z,99160.19
2022-11-22T01:44:30.670Z,99155.66
2022-11-22T01:47:01.364Z,99162.53
2022-11-22T01:49:35.281Z,99156.88
2022-11-22T01:52:08.749Z,99160.88
2022-11-22T01:54:39.560Z,99151.50
2022-11-22T01:57:11.538Z,99161.25
2022-11-22T01:59:44.559Z,99150.84
2022-11-22T02:02:13.948Z,99146.13
2022-11-22T02:04:44.709Z,99146.66
2022-11-22T02:07:19.669Z,99136.72
2022-11-22T02:09:50.143Z,99140.59
2022-11-22T02:12:20.040Z,99138.66
2022-11-22T02:14:48.826Z,99140.91
2022-11-22T02:17:16.891Z,99138.88
2022-11-22T02:19:47.399Z,99137.31
2022-11-22T02:22:26.564Z,99132.41
2022-11-22T02:24:58.028Z,99135.81
2022-11-22T02:27:27.279Z,99134.53
2022-11-22T02:29:55.029Z,99146.66
2022-11-22T02:32:22.747Z,99161.13
2022-11-22T02:34:52.081Z,99151.56
2022-11-22T02:37:25.279Z,99149.44
2022-11-22T02:39:58.287Z,99152.25
2022-11-22T02:42:27.972Z,99157.94
2022-11-22T02:44:55.774Z,99160.00
2022-11-22T02:47:23.687Z,99157.28
2022-11-22T02:49:53.734Z,99161.53
2022-11-22T02:52:21.551Z,99167.22
2022-11-22T02:54:49.298Z,99158.50
2022-11-22T02:57:17.036Z,99149.63
2022-11-22T02:59:46.181Z,99154.88
2022-11-22T03:02:14.194Z,99162.66
2022-11-22T03:04:41.921Z,99156.44
2022-11-22T03:07:09.709Z,99160.59
2022-11-22T03:09:37.548Z,99153.78
2022-11-22T03:12:05.471Z,99165.19
2022-11-22T03:14:33.236Z,99157.84
2022-11-22T03:17:02.420Z,99164.69
2022-11-22T03:19:30.469Z,99162.03
2022-11-22T03:21:58.444Z,99165.22
2022-11-22T03:24:26.213Z,99151.34
2022-11-22T03:26:53.928Z,99155.66
2022-11-22T03:29:21.683Z,99150.94
2022-11-22T03:31:49.414Z,99159.16
2022-11-22T03:34:18.638Z,99161.19
2022-11-22T03:36:46.436Z,99154.31
2022-11-22T03:39:14.184Z,99158.38
2022-11-22T03:41:41.929Z,99163.28
2022-11-22T03:44:09.644Z,99144.53
2022-11-22T03:46:38.192Z,99163.91
2022-11-22T03:49:05.896Z,99169.28
2022-11-22T03:51:35.023Z,99156.28
2022-11-22T03:54:02.791Z,99162.47
2022-11-22T03:56:30.629Z,99156.38
2022-11-22T03:58:58.387Z,99159.88
2022-11-22T04:01:26.192Z,99167.44
2022-11-22T04:03:54.011Z,99176.25
2022-11-22T04:06:21.752Z,99161.44
2022-11-22T04:08:51.177Z,99167.22
2022-11-22T04:11:18.919Z,99176.56
2022-11-22T04:14:12.389Z,99183.38
2022-11-22T04:16:40.183Z,99187.13
2022-11-22T04:19:08.423Z,99185.28
2022-11-22T04:21:35.242Z,99182.03
2022-11-22T04:24:23.481Z,99180.81
2022-11-22T04:26:51.255Z,99184.19
2022-11-22T04:29:20.050Z,99182.75
2022-11-22T04:32:06.433Z,99190.56
2022-11-22T04:34:34.395Z,99192.06
2022-11-22T04:37:02.575Z,99189.72
2022-11-22T04:39:32.167Z,99190.03
2022-11-22T04:42:17.630Z,99193.44
2022-11-22T04:44:46.095Z,99190.91
2022-11-22T04:47:36.713Z,99201.19
2022-11-22T04:50:27.920Z,99195.69
2022-11-22T04:52:55.895Z,99197.53
2022-11-22T04:55:25.042Z,99195.69
2022-11-22T04:57:58.865Z,99193.53
2022-11-22T05:00:28.155Z,99192.53
2022-11-22T05:02:56.109Z,99191.06
2022-11-22T05:05:24.117Z,99193.72
2022-11-22T05:07:52.072Z,99186.72
2022-11-22T05:10:25.866Z,99186.59
2022-11-22T05:12:56.316Z,99196.28
2022-11-22T05:15:24.033Z,99197.75
2022-11-22T05:17:51.776Z,99196.19
2022-11-22T05:20:19.628Z,99187.16
2022-11-22T05:23:04.677Z,99205.94
2022-11-22T05:25:32.396Z,99207.53
2022-11-22T05:28:01.436Z,99192.44
2022-11-22T05:30:29.165Z,99204.66
2022-11-22T05:32:56.836Z,99223.38
2022-11-22T05:35:24.664Z,99215.50
2022-11-22T05:37:52.395Z,99214.84
2022-11-22T05:40:20.151Z,99219.69
2022-11-22T05:42:47.831Z,99215.31
2022-11-22T05:45:17.192Z,99225.13
2022-11-22T05:47:44.917Z,99235.31
2022-11-22T05:50:13.264Z,99222.75
2022-11-22T05:52:41.111Z,99230.88
2022-11-22T05:55:09.235Z,99223.13
2022-11-22T05:57:36.990Z,99219.34
2022-11-22T06:00:05.884Z,99228.06
2022-11-22T06:02:35.135Z,99235.13
2022-11-22T06:05:02.915Z,99245.31
2022-11-22T06:07:31.325Z,99246.72
2022-11-22T06:09:59.128Z,99234.56
2022-11-22T06:12:26.857Z,99242.97
2022-11-22T06:14:54.543Z,99250.16
2022-11-22T06:17:22.332Z,99243.31
2022-11-22T06:19:51.457Z,99259.19
2022-11-22T06:22:19.116Z,99246.38
2022-11-22T06:24:46.844Z,99257.31
2022-11-22T06:27:14.606Z,99250.56
2022-11-22T06:29:42.694Z,99252.22
2022-11-22T06:32:10.434Z,99253.03
2022-11-22T06:34:38.176Z,99253.78
2022-11-22T06:37:07.228Z,99251.53
2022-11-22T06:39:35.207Z,99254.66
2022-11-22T06:42:03.059Z,99259.78
2022-11-22T06:44:30.796Z,99259.84
2022-11-22T06:46:58.440Z,99261.97
2022-11-22T06:49:26.202Z,99267.59
2022-11-22T06:51:53.972Z,99259.78
2022-11-22T06:54:23.010Z,99274.97
2022-11-22T06:56:50.745Z,99278.25
2022-11-22T06:59:18.608Z,99279.38
2022-11-22T07:01:46.386Z,99278.25
2022-11-22T07:04:14.233Z,99277.75
2022-11-22T07:06:44.136Z,99280.47
2022-11-22T07:09:12.499Z,99282.50
2022-11-22T07:11:41.839Z,99272.91
2022-11-22T07:14:09.753Z,99287.50
2022-11-22T07:16:38.508Z,99289.09
2022-11-22T07:19:07.025Z,99289.38
2022-11-22T07:21:37.210Z,99281.03
2022-11-22T07:24:06.947Z,99288.56
2022-11-22T07:26:34.776Z,99276.38
2022-11-22T07:29:04.072Z,99279.41
2022-11-22T07:31:31.852Z,99285.56
2022-11-22T07:33:59.620Z,99276.66
2022-11-22T07:36:29.498Z,99285.81
2022-11-22T07:38:57.698Z,99290.94
2022-11-22T07:41:25.451Z,99285.25
2022-11-22T07:43:53.962Z,99291.59
2022-11-22T07:46:26.328Z,99291.50
2022-11-22T07:48:54.312Z,99297.97
2022-11-22T07:51:22.073Z,99292.22
2022-11-22T07:53:49.867Z,99301.59
2022-11-22T07:56:17.995Z,99305.63
2022-11-22T07:58:45.840Z,99310.00
2022-11-22T08:01:16.637Z,99313.53
2022-11-22T08:03:46.520Z,99315.94
2022-11-22T08:06:14.786Z,99315.44
2022-11-22T08:08:43.011Z,99316.72
2022-11-22T08:11:11.583Z,99311.19
2022-11-22T08:13:39.435Z,99303.50
2022-11-22T08:16:09.635Z,99312.25
2022-11-22T08:18:38.743Z,99314.38
2022-11-22T08:21:09.800Z,99322.25
2022-11-22T08:23:38.428Z,99321.84
2022-11-22T08:26:07.553Z,99327.69
2022-11-22T08:28:35.373Z,99329.75
2022-11-22T08:31:05.560Z,99342.75
2022-11-22T08:33:33.363Z,99342.00
2022-11-22T08:36:01.352Z,99341.34
2022-11-22T08:38:30.542Z,99351.25
2022-11-22T08:40:58.363Z,99349.97
2022-11-22T08:43:26.647Z,99350.00
2022-11-22T08:45:58.468Z,99350.66
2022-11-22T08:48:26.817Z,99342.63
2022-11-22T08:50:55.927Z,99353.41
2022-11-22T08:53:24.292Z,99345.22
2022-11-22T08:55:53.865Z,99342.31
2022-11-22T08:58:22.920Z,99350.00
2022-11-22T09:00:50.676Z,99364.66
2022-11-22T09:03:18.444Z,99354.69
2022-11-22T09:08:36.643Z,99368.53
2022-11-22T09:11:13.098Z,99361.81
2022-11-22T09:13:41.816Z,99359.56
2022-11-22T09:16:12.625Z,99363.06
2022-11-22T09:18:40.864Z,99365.44
2022-11-22T09:21:10.958Z,99359.34
2022-11-22T09:23:39.668Z,99371.22
2022-11-22T09:26:11.204Z,99370.59
2022-11-22T09:28:39.375Z,99371.31
2022-11-22T09:31:09.476Z,99372.25
2022-11-22T09:33:39.207Z,99368.75
2022-11-22T09:36:09.696Z,99368.34
2022-11-22T09:38:38.351Z,99378.28
2022-11-22T09:41:21.620Z,99355.53
2022-11-22T09:44:02.155Z,99346.00
2022-11-22T09:46:42.243Z,99341.47
2022-11-22T09:49:27.555Z,99332.53
2022-11-22T09:52:07.579Z,99331.53
2022-11-22T09:54:42.484Z,99350.25
2022-11-22T09:57:17.519Z,99332.09
2022-11-22T09:59:48.532Z,99351.25
2022-11-22T10:02:22.366Z,99348.38
2022-11-22T10:04:56.164Z,99340.41
2022-11-22T10:07:29.758Z,99352.13
2022-11-22T10:10:04.588Z,99353.25
2022-11-22T10:12:41.267Z,99368.06
2022-11-22T10:15:20.360Z,99362.44
2022-11-22T10:17:55.088Z,99360.78
2022-11-22T10:20:24.813Z,99368.72
2022-11-22T10:22:52.945Z,99373.91
2022-11-22T10:25:23.317Z,99368.06
2022-11-22T10:28:00.582Z,99374.88
2022-11-22T10:30:36.063Z,99367.06
2022-11-22T10:33:14.168Z,99368.34
2022-11-22T10:35:58.665Z,99377.56
2022-11-22T10:38:48.223Z,99370.53
2022-11-22T10:41:30.873Z,99363.88
2022-11-22T10:44:15.455Z,99370.88
2022-11-22T10:46:56.900Z,99361.06
2022-11-22T10:49:39.893Z,99359.72
2022-11-22T10:52:18.870Z,99357.78
2022-11-22T10:54:53.087Z,99354.16
2022-11-22T10:57:31.144Z,99352.63
2022-11-22T11:00:15.843Z,99342.34
2022-11-22T11:03:04.221Z,99347.44
2022-11-22T11:06:00.746Z,99352.06
2022-11-22T11:09:23.244Z,99346.84
2022-11-22T11:11:26.796Z,99353.00
2022-11-22T11:13:57.995Z,99343.47
2022-11-22T11:16:32.077Z,99353.88
2022-11-22T11:19:15.428Z,99348.19
2022-11-22T11:21:43.134Z,99347.31
2022-11-22T11:24:14.827Z,99338.91
2022-11-22T11:26:44.582Z,99348.63
2022-11-22T11:29:38.384Z,99347.03
2022-11-22T11:32:09.098Z,99341.34
2022-11-22T11:34:37.987Z,99342.50
2022-11-22T11:37:06.842Z,99341.25
2022-11-22T11:39:39.409Z,99347.53
2022-11-22T11:42:23.586Z,99347.59
2022-11-22T11:44:51.662Z,99356.38
2022-11-22T11:47:32.993Z,99356.16
2022-11-22T11:50:01.256Z,99349.22
2022-11-22T11:52:31.570Z,99352.56
2022-11-22T11:55:03.089Z,99352.88
2022-11-22T11:57:32.786Z,99348.31
2022-11-22T12:00:02.475Z,99362.72
2022-11-22T12:02:36.873Z,99336.91
2022-11-22T12:05:07.549Z,99354.72
2022-11-22T12:07:44.034Z,99345.69
2022-11-22T12:10:31.642Z,99337.28
2022-11-22T12:13:04.787Z,99342.22
2022-11-22T12:15:36.593Z,99338.06
2022-11-22T12:18:21.020Z,99338.06
2022-11-22T12:20:57.577Z,99333.66
2022-11-22T12:23:30.786Z,99331.00
2022-11-22T12:25:59.496Z,99320.31
2022-11-22T12:28:29.227Z,99325.59
2022-11-22T12:31:00.788Z,99326.81
2022-11-22T12:33:35.237Z,99318.78
2022-11-22T12:36:05.846Z,99321.66
2022-11-22T12:38:37.762Z,99324.31
2022-11-22T12:41:10.824Z,99330.47
2022-11-22T12:43:45.616Z,99319.56
2022-11-22T12:46:18.942Z,99335.25
2022-11-22T12:48:50.348Z,99320.69
2022-11-22T12:51:24.335Z,99334.22
2022-11-22T12:53:54.178Z,99339.59
2022-11-22T12:56:33.651Z,99338.63
2022-11-22T12:59:04.995Z,99317.16
2022-11-22T13:01:40.048Z,99329.69
2022-11-22T13:04:19.460Z,99317.00
2022-11-22T13:06:57.999Z,99335.03
2022-11-22T13:09:31.468Z,99326.13
2022-11-22T13:12:04.490Z,99325.72
2022-11-22T13:14:39.105Z,99326.88
2022-11-22T13:17:08.401Z,99336.72
2022-11-22T13:19:46.628Z,99320.50
2022-11-22T13:22:21.916Z,99334.41
2022-11-22T13:25:04.488Z,99339.25
2022-11-22T13:27:36.157Z,99334.72
2022-11-22T13:30:05.474Z,99322.72
2022-11-22T13:32:34.733Z,99325.59
2022-11-22T13:35:27.739Z,99336.31
2022-11-22T13:37:57.939Z,99316.97
2022-11-22T13:40:29.802Z,99317.63
2022-11-22T13:43:42.934Z,99313.97
2022-11-22T13:46:53.938Z,99319.72
2022-11-22T13:49:38.191Z,99310.63
2022-11-22T13:52:53.650Z,99317.97
2022-11-22T13:55:37.255Z,99311.56
2022-11-22T13:58:55.822Z,99319.75
2022-11-22T14:01:57.649Z,99315.72
2022-11-22T14:04:40.666Z,99320.03
2022-11-22T14:07:31.600Z,99307.66
2022-11-22T14:10:02.005Z,99302.88
2022-11-22T14:13:04.507Z,99313.19
2022-11-22T14:15:52.224Z,99324.38
2022-11-22T14:18:49.574Z,99309.56
2022-11-22T14:21:40.187Z,99311.38
2022-11-22T14:24:15.563Z,99302.81
2022-11-22T14:26:55.725Z,99302.44
2022-11-22T14:29:54.047Z,99307.72
2022-11-22T14:32:23.844Z,99303.00
2022-11-22T14:35:17.370Z,99298.19
2022-11-22T14:37:48.497Z,99300.88
2022-11-22T14:40:28.836Z,99306.88
2022-11-22T14:42:59.826Z,99301.13
2022-11-22T14:45:41.209Z,99314.19
2022-11-22T14:48:17.598Z,99307.81
2022-11-22T14:50:49.770Z,99306.56
2022-11-22T14:53:26.002Z,99304.31
2022-11-22T14:56:00.608Z,99308.00
2022-11-22T14:58:30.768Z,99307.34
2022-11-22T15:01:24.508Z,99296.91
2022-11-22T15:09:16.273Z,99302.81
2022-11-22T15:09:23.395Z,99297.94
2022-11-22T15:10:52.157Z,99313.19
2022-11-22T15:13:39.605Z,99310.34
2022-11-22T15:59:42.845Z,99314.41
2022-11-22T16:02:15.882Z,99324.19
2022-11-22T16:04:49.237Z,99323.38
2022-11-22T16:07:42.317Z,99320.66
2022-11-22T16:10:20.234Z,99335.59
2022-11-22T16:12:48.290Z,99342.91
2022-11-22T16:15:29.037Z,99343.06
2022-11-22T16:18:08.276Z,99346.69
2022-11-22T16:20:40.124Z,99348.78
2022-11-22T16:23:19.826Z,99355.59
2022-11-22T16:25:49.797Z,99351.22
2022-11-22T16:28:33.334Z,99355.22
2022-11-22T16:31:04.442Z,99361.19
2022-11-22T16:33:33.230Z,99363.63
2022-11-22T16:36:03.532Z,99360.72
2022-11-22T16:38:33.121Z,99352.03
2022-11-22T16:41:02.624Z,99359.25
2022-11-22T16:43:35.418Z,99357.88
2022-11-22T16:46:03.387Z,99356.09
2022-11-22T16:48:33.033Z,99361.56
2022-11-22T16:51:04.884Z,99347.66
2022-11-22T16:53:41.200Z,99350.75
2022-11-22T16:56:10.278Z,99329.81
2022-11-22T16:58:37.974Z,99341.00
2022-11-22T17:01:06.067Z,99339.16
2022-11-22T17:03:37.777Z,99346.06
2022-11-22T17:06:05.614Z,99349.09
2022-11-22T17:08:33.379Z,99347.75
2022-11-22T17:11:02.498Z,99345.69
2022-11-22T17:13:30.300Z,99346.22
2022-11-22T17:15:58.369Z,99349.25
2022-11-22T17:18:26.152Z,99341.22
2022-11-22T17:20:54.429Z,99334.16
2022-11-22T17:23:28.369Z,99335.22
2022-11-22T17:25:56.227Z,99338.63
2022-11-22T17:28:25.360Z,99338.47
2022-11-22T17:30:53.388Z,99352.31
2022-11-22T17:33:21.181Z,99355.13
2022-11-22T17:35:50.372Z,99354.41
2022-11-22T17:38:18.304Z,99357.31
2022-11-22T17:40:46.205Z,99346.84
2022-11-22T17:43:14.368Z,99337.38
2022-11-22T17:45:44.813Z,99342.97
2022-11-22T17:48:13.658Z,99350.94
2022-11-22T17:50:41.538Z,99351.06
2022-11-22T17:53:09.336Z,99341.56
2022-11-22T17:56:08.470Z,99343.75
2022-11-22T17:58:26.605Z,99343.69
2022-11-22T18:01:03.521Z,99350.50
2022-11-22T18:03:31.452Z,99341.53
2022-11-22T18:05:59.251Z,99347.78
2022-11-22T18:08:27.015Z,99364.28
2022-11-22T18:10:54.911Z,99367.97
2022-11-22T18:13:23.431Z,99357.47
2022-11-22T18:15:52.452Z,99360.56
2022-11-22T18:18:54.413Z,99358.63
2022-11-22T18:21:15.650Z,99360.88
2022-11-22T18:23:45.209Z,99373.19
2022-11-22T18:31:53.436Z,99382.09
2022-11-22T18:34:23.610Z,99390.94
2022-11-22T18:39:40.432Z,99383.53
2022-11-22T18:42:11.498Z,99388.53
2022-11-22T18:44:39.301Z,99397.25
2022-11-22T18:47:07.208Z,99388.78
2022-11-22T18:49:36.930Z,99380.28
2022-11-22T18:52:05.216Z,99366.66
2022-11-22T18:54:33.327Z,99363.97
2022-11-22T18:57:01.297Z,99355.25
2022-11-22T18:59:29.077Z,99354.97
2022-11-22T19:01:56.769Z,99369.03
2022-11-22T19:04:24.479Z,99368.28
2022-11-22T19:06:55.441Z,99350.38
2022-11-22T19:09:23.226Z,99350.81
2022-11-22T19:11:55.575Z,99348.38
2022-11-22T19:14:27.104Z,99355.19
2022-11-22T19:16:54.811Z,99363.72
2022-11-22T19:19:24.309Z,99364.16
2022-11-22T19:21:53.352Z,99356.44
2022-11-22T19:24:21.251Z,99373.44
2022-11-22T19:26:49.000Z,99364.69
2022-11-22T19:29:17.101Z,99368.53
2022-11-22T19:31:45.208Z,99374.63
2022-11-22T19:34:13.330Z,99375.09
2022-11-22T19:36:41.484Z,99371.31
2022-11-22T19:39:13.552Z,99383.69
2022-11-22T19:41:42.216Z,99386.13
2022-11-22T19:44:10.505Z,99384.44
2022-11-22T19:46:41.387Z,99384.00
2022-11-22T19:49:10.209Z,99374.50
2022-11-22T19:51:38.932Z,99373.97
2022-11-22T19:54:07.487Z,99382.97
2022-11-22T19:56:37.865Z,99375.91
2022-11-22T19:59:07.420Z,99371.84
2022-11-22T20:01:36.232Z,99375.91
2022-11-22T20:04:06.570Z,99363.97
2022-11-22T20:06:35.403Z,99355.00
2022-11-22T20:09:05.086Z,99362.91
2022-11-22T20:11:33.325Z,99368.75
2022-11-22T20:14:02.534Z,99356.66
2022-11-22T20:16:31.392Z,99351.72
2022-11-22T20:19:00.918Z,99352.63
2022-11-22T20:21:30.770Z,99356.53
2022-11-22T20:23:59.305Z,99352.56
2022-11-22T20:26:28.801Z,99349.00
2022-11-22T20:28:58.143Z,99353.44
2022-11-22T20:31:30.304Z,99355.47
2022-11-22T20:33:59.963Z,99353.72
2022-11-22T20:36:29.947Z,99355.22
2022-11-22T20:38:58.266Z,99355.41
2022-11-22T20:41:27.889Z,99353.63
2022-11-22T20:43:55.918Z,99358.75
2022-11-22T20:46:25.476Z,99347.34
2022-11-22T20:48:55.924Z,99347.94
2022-11-22T20:51:25.516Z,99346.00
2022-11-22T20:53:53.701Z,99348.25
2022-11-22T20:56:22.107Z,99347.09
2022-11-22T20:58:50.254Z,99349.75
2022-11-22T21:01:19.953Z,99356.41
2022-11-22T21:03:48.343Z,99359.88
2022-11-22T21:06:18.719Z,99348.09
2022-11-22T21:08:46.886Z,99351.03
2022-11-22T21:11:16.555Z,99341.91
2022-11-22T21:13:44.975Z,99342.16
2022-11-22T21:16:23.177Z,99342.59
2022-11-22T21:18:52.515Z,99342.59
2022-11-22T21:21:23.961Z,99337.44
2022-11-22T21:23:52.696Z,99338.31
2022-11-22T21:26:20.844Z,99340.56
2022-11-22T21:28:48.847Z,99342.03
2022-11-22T21:31:16.692Z,99350.34
2022-11-22T21:33:45.688Z,99347.56
2022-11-22T21:36:15.090Z,99356.09
2022-11-22T21:38:44.154Z,99353.19
2022-11-22T21:41:38.657Z,99350.91
2022-11-22T21:44:04.039Z,99343.16
2022-11-22T21:46:31.840Z,99335.47
2022-11-22T21:48:59.593Z,99334.88
2022-11-22T21:51:30.410Z,99344.31
2022-11-22T21:54:00.346Z,99347.09
2022-11-22T21:56:28.857Z,99336.31
2022-11-22T21:58:57.341Z,99342.38
2022-11-22T22:01:25.583Z,99351.59
2022-11-22T22:03:53.672Z,99355.69
2022-11-22T22:06:21.536Z,99353.28
2022-11-22T22:08:49.432Z,99352.84
2022-11-22T22:11:18.673Z,99349.19
2022-11-22T22:13:46.600Z,99352.59
2022-11-22T22:16:19.105Z,99356.00
2022-11-22T22:18:47.310Z,99342.38
2022-11-22T22:21:16.138Z,99348.06
2022-11-22T22:23:44.833Z,99341.31
2022-11-22T22:26:14.421Z,99341.56
2022-11-22T22:28:44.995Z,99328.47
2022-11-22T22:31:16.832Z,99336.25
2022-11-22T22:33:46.491Z,99325.50
2022-11-22T22:36:15.015Z,99333.16
2022-11-22T22:38:43.081Z,99325.78
2022-11-22T22:41:12.943Z,99326.66
2022-11-22T22:43:43.924Z,99327.25
2022-11-22T22:46:14.225Z,99327.66
2022-11-22T22:48:42.835Z,99325.84
2022-11-22T22:51:13.772Z,99317.09
2022-11-22T22:53:42.194Z,99311.88
2022-11-22T22:56:11.123Z,99311.53
2022-11-22T22:58:39.255Z,99307.53
2022-11-22T23:01:10.389Z,99314.56
2022-11-22T23:03:38.189Z,99310.69
2022-11-22T23:06:07.219Z,99313.59
2022-11-22T23:08:35.085Z,99306.53
2022-11-22T23:11:04.425Z,99303.97
2022-11-22T23:13:32.543Z,99305.66
2022-11-22T23:16:00.528Z,99305.91
2022-11-22T23:18:29.917Z,99307.38
2022-11-22T23:21:00.823Z,99313.56
2022-11-22T23:23:29.627Z,99314.31
2022-11-22T23:25:57.617Z,99311.03
2022-11-22T23:28:25.307Z,99301.31
2022-11-22T23:30:53.368Z,99301.19
2022-11-22T23:33:21.060Z,99303.28
2022-11-22T23:35:50.246Z,99305.69
2022-11-22T23:38:17.971Z,99301.31
2022-11-22T23:40:45.684Z,99303.03
2022-11-22T23:43:13.450Z,99303.50
2022-11-22T23:45:46.359Z,99293.44
2022-11-22T23:48:14.340Z,99290.75
2022-11-22T23:50:42.178Z,99290.72
2022-11-22T23:53:11.357Z,99283.94
2022-11-22T23:55:39.068Z,99284.41
2022-11-22T23:58:06.891Z,99284.66
